sensor_id;sensor_type;location;lat;lon;timestamp;P1;durP1;ratioP1;P2;durP2;ratioP2
57395;SDS011;43222;52.912;6.940;2023-04-24T00:00:50;2.38;;;0.80;;
57395;SDS011;43222;52.912;6.940;2023-04-24T00:03:16;1.77;;;0.75;;
57395;SDS011;43222;52.912;6.940;2023-04-24T00:05:45;1.90;;;0.90;;
57395;SDS011;43222;52.912;6.940;2023-04-24T00:08:11;2.53;;;1.10;;
57395;SDS011;43222;52.912;6.940;2023-04-24T00:10:37;2.70;;;1.17;;
57395;SDS011;43222;52.912;6.940;2023-04-24T00:13:03;2.38;;;1.33;;
57395;SDS011;43222;52.912;6.940;2023-04-24T00:15:30;4.13;;;1.20;;
57395;SDS011;43222;52.912;6.940;2023-04-24T00:17:56;2.72;;;1.40;;
57395;SDS011;43222;52.912;6.940;2023-04-24T00:20:22;3.30;;;1.65;;
57395;SDS011;43222;52.912;6.940;2023-04-24T00:22:48;3.08;;;1.52;;
57395;SDS011;43222;52.912;6.940;2023-04-24T00:25:14;3.00;;;1.70;;
57395;SDS011;43222;52.912;6.940;2023-04-24T00:27:41;4.70;;;1.90;;
57395;SDS011;43222;52.912;6.940;2023-04-24T00:30:07;4.38;;;2.30;;
57395;SDS011;43222;52.912;6.940;2023-04-24T00:32:33;4.00;;;2.20;;
57395;SDS011;43222;52.912;6.940;2023-04-24T00:34:59;4.13;;;2.30;;
57395;SDS011;43222;52.912;6.940;2023-04-24T00:37:25;4.93;;;2.47;;
57395;SDS011;43222;52.912;6.940;2023-04-24T00:39:51;5.45;;;2.65;;
57395;SDS011;43222;52.912;6.940;2023-04-24T00:42:17;4.88;;;3.05;;
57395;SDS011;43222;52.912;6.940;2023-04-24T00:44:43;4.30;;;2.80;;
57395;SDS011;43222;52.912;6.940;2023-04-24T00:47:10;4.70;;;2.90;;
57395;SDS011;43222;52.912;6.940;2023-04-24T00:49:36;5.05;;;3.20;;
57395;SDS011;43222;52.912;6.940;2023-04-24T00:52:02;4.97;;;2.67;;
57395;SDS011;43222;52.912;6.940;2023-04-24T00:54:32;4.13;;;2.83;;
57395;SDS011;43222;52.912;6.940;2023-04-24T00:56:58;4.60;;;2.63;;
57395;SDS011;43222;52.912;6.940;2023-04-24T00:59:26;3.90;;;2.25;;
57395;SDS011;43222;52.912;6.940;2023-04-24T01:01:52;3.70;;;2.00;;
57395;SDS011;43222;52.912;6.940;2023-04-24T01:04:18;4.05;;;1.85;;
57395;SDS011;43222;52.912;6.940;2023-04-24T01:06:45;3.35;;;1.55;;
57395;SDS011;43222;52.912;6.940;2023-04-24T01:09:11;3.75;;;1.65;;
57395;SDS011;43222;52.912;6.940;2023-04-24T01:11:38;3.35;;;1.60;;
57395;SDS011;43222;52.912;6.940;2023-04-24T01:14:07;3.45;;;1.50;;
57395;SDS011;43222;52.912;6.940;2023-04-24T01:16:33;2.92;;;1.70;;
57395;SDS011;43222;52.912;6.940;2023-04-24T01:18:59;3.97;;;1.90;;
57395;SDS011;43222;52.912;6.940;2023-04-24T01:21:26;3.67;;;1.75;;
57395;SDS011;43222;52.912;6.940;2023-04-24T01:23:55;3.35;;;1.50;;
57395;SDS011;43222;52.912;6.940;2023-04-24T01:26:21;3.30;;;1.83;;
57395;SDS011;43222;52.912;6.940;2023-04-24T01:28:48;5.25;;;1.90;;
57395;SDS011;43222;52.912;6.940;2023-04-24T01:31:14;3.10;;;1.70;;
57395;SDS011;43222;52.912;6.940;2023-04-24T01:33:41;2.88;;;1.67;;
57395;SDS011;43222;52.912;6.940;2023-04-24T01:36:08;3.65;;;1.77;;
57395;SDS011;43222;52.912;6.940;2023-04-24T01:38:35;4.45;;;1.88;;
57395;SDS011;43222;52.912;6.940;2023-04-24T01:41:01;3.08;;;1.95;;
57395;SDS011;43222;52.912;6.940;2023-04-24T01:43:28;3.72;;;2.00;;
57395;SDS011;43222;52.912;6.940;2023-04-24T01:45:54;3.85;;;2.20;;
57395;SDS011;43222;52.912;6.940;2023-04-24T01:48:20;4.60;;;2.10;;
57395;SDS011;43222;52.912;6.940;2023-04-24T01:50:47;4.97;;;2.28;;
57395;SDS011;43222;52.912;6.940;2023-04-24T01:53:13;4.22;;;2.20;;
57395;SDS011;43222;52.912;6.940;2023-04-24T01:55:40;4.00;;;2.15;;
57395;SDS011;43222;52.912;6.940;2023-04-24T01:58:06;3.92;;;2.42;;
57395;SDS011;43222;52.912;6.940;2023-04-24T02:00:32;4.13;;;2.50;;
57395;SDS011;43222;52.912;6.940;2023-04-24T02:02:58;4.40;;;2.65;;
57395;SDS011;43222;52.912;6.940;2023-04-24T02:05:26;4.47;;;2.60;;
57395;SDS011;43222;52.912;6.940;2023-04-24T02:07:52;3.97;;;2.58;;
57395;SDS011;43222;52.912;6.940;2023-04-24T02:10:18;4.28;;;2.90;;
57395;SDS011;43222;52.912;6.940;2023-04-24T02:12:44;4.40;;;2.80;;
57395;SDS011;43222;52.912;6.940;2023-04-24T02:15:11;4.22;;;2.88;;
57395;SDS011;43222;52.912;6.940;2023-04-24T02:17:37;4.85;;;3.30;;
57395;SDS011;43222;52.912;6.940;2023-04-24T02:20:04;4.90;;;3.40;;
57395;SDS011;43222;52.912;6.940;2023-04-24T02:22:30;5.30;;;3.78;;
57395;SDS011;43222;52.912;6.940;2023-04-24T02:24:56;7.18;;;4.20;;
57395;SDS011;43222;52.912;6.940;2023-04-24T02:27:22;5.95;;;4.05;;
57395;SDS011;43222;52.912;6.940;2023-04-24T02:29:48;5.95;;;4.30;;
57395;SDS011;43222;52.912;6.940;2023-04-24T02:32:14;6.20;;;4.28;;
57395;SDS011;43222;52.912;6.940;2023-04-24T02:34:41;6.45;;;4.75;;
57395;SDS011;43222;52.912;6.940;2023-04-24T02:37:07;6.40;;;5.03;;
57395;SDS011;43222;52.912;6.940;2023-04-24T02:39:33;6.53;;;4.63;;
57395;SDS011;43222;52.912;6.940;2023-04-24T02:41:59;6.47;;;5.00;;
57395;SDS011;43222;52.912;6.940;2023-04-24T02:44:26;6.72;;;5.43;;
57395;SDS011;43222;52.912;6.940;2023-04-24T02:46:52;7.25;;;5.22;;
57395;SDS011;43222;52.912;6.940;2023-04-24T02:49:18;8.07;;;5.43;;
57395;SDS011;43222;52.912;6.940;2023-04-24T02:51:45;7.85;;;5.75;;
57395;SDS011;43222;52.912;6.940;2023-04-24T02:54:11;6.80;;;5.60;;
57395;SDS011;43222;52.912;6.940;2023-04-24T02:56:37;7.32;;;5.82;;
57395;SDS011;43222;52.912;6.940;2023-04-24T02:59:03;7.75;;;5.40;;
57395;SDS011;43222;52.912;6.940;2023-04-24T03:01:29;8.40;;;5.70;;
57395;SDS011;43222;52.912;6.940;2023-04-24T03:03:55;8.27;;;6.07;;
57395;SDS011;43222;52.912;6.940;2023-04-24T03:06:21;7.10;;;5.30;;
57395;SDS011;43222;52.912;6.940;2023-04-24T03:08:48;6.20;;;4.88;;
57395;SDS011;43222;52.912;6.940;2023-04-24T03:11:14;7.63;;;5.63;;
57395;SDS011;43222;52.912;6.940;2023-04-24T03:13:40;8.05;;;5.80;;
57395;SDS011;43222;52.912;6.940;2023-04-24T03:16:06;6.55;;;5.70;;
57395;SDS011;43222;52.912;6.940;2023-04-24T03:18:32;8.10;;;6.22;;
57395;SDS011;43222;52.912;6.940;2023-04-24T03:20:58;7.80;;;5.90;;
57395;SDS011;43222;52.912;6.940;2023-04-24T03:23:24;7.50;;;5.80;;
57395;SDS011;43222;52.912;6.940;2023-04-24T03:25:50;7.50;;;5.93;;
57395;SDS011;43222;52.912;6.940;2023-04-24T03:28:16;8.88;;;5.65;;
57395;SDS011;43222;52.912;6.940;2023-04-24T03:30:42;8.02;;;6.00;;
57395;SDS011;43222;52.912;6.940;2023-04-24T03:33:08;7.18;;;5.43;;
57395;SDS011;43222;52.912;6.940;2023-04-24T03:35:34;7.05;;;5.57;;
57395;SDS011;43222;52.912;6.940;2023-04-24T03:38:01;7.45;;;5.40;;
57395;SDS011;43222;52.912;6.940;2023-04-24T03:40:29;10.55;;;5.65;;
57395;SDS011;43222;52.912;6.940;2023-04-24T03:42:55;7.13;;;5.47;;
57395;SDS011;43222;52.912;6.940;2023-04-24T03:45:21;7.18;;;5.20;;
57395;SDS011;43222;52.912;6.940;2023-04-24T03:47:47;6.20;;;5.25;;
57395;SDS011;43222;52.912;6.940;2023-04-24T03:50:13;7.07;;;5.50;;
57395;SDS011;43222;52.912;6.940;2023-04-24T03:52:39;6.68;;;5.25;;
57395;SDS011;43222;52.912;6.940;2023-04-24T03:55:06;6.53;;;5.53;;
57395;SDS011;43222;52.912;6.940;2023-04-24T03:57:32;7.15;;;4.97;;
57395;SDS011;43222;52.912;6.940;2023-04-24T03:59:58;6.43;;;5.15;;
57395;SDS011;43222;52.912;6.940;2023-04-24T04:02:24;8.73;;;6.05;;
57395;SDS011;43222;52.912;6.940;2023-04-24T04:04:51;7.63;;;6.30;;
57395;SDS011;43222;52.912;6.940;2023-04-24T04:07:17;8.35;;;6.00;;
57395;SDS011;43222;52.912;6.940;2023-04-24T04:09:43;8.00;;;6.32;;
57395;SDS011;43222;52.912;6.940;2023-04-24T04:12:09;7.65;;;5.95;;
57395;SDS011;43222;52.912;6.940;2023-04-24T04:14:35;6.95;;;6.07;;
57395;SDS011;43222;52.912;6.940;2023-04-24T04:17:01;8.70;;;6.88;;
57395;SDS011;43222;52.912;6.940;2023-04-24T04:19:27;8.23;;;7.15;;
57395;SDS011;43222;52.912;6.940;2023-04-24T04:21:53;7.50;;;6.50;;
57395;SDS011;43222;52.912;6.940;2023-04-24T04:24:21;8.35;;;6.45;;
57395;SDS011;43222;52.912;6.940;2023-04-24T04:26:47;8.88;;;6.60;;
57395;SDS011;43222;52.912;6.940;2023-04-24T04:29:16;7.40;;;6.50;;
57395;SDS011;43222;52.912;6.940;2023-04-24T04:31:43;9.23;;;7.53;;
57395;SDS011;43222;52.912;6.940;2023-04-24T04:34:09;7.10;;;6.32;;
57395;SDS011;43222;52.912;6.940;2023-04-24T04:36:36;8.07;;;6.50;;
57395;SDS011;43222;52.912;6.940;2023-04-24T04:39:05;7.82;;;7.03;;
57395;SDS011;43222;52.912;6.940;2023-04-24T04:41:31;7.50;;;6.50;;
57395;SDS011;43222;52.912;6.940;2023-04-24T04:44:00;7.75;;;6.53;;
57395;SDS011;43222;52.912;6.940;2023-04-24T04:46:26;8.30;;;7.05;;
57395;SDS011;43222;52.912;6.940;2023-04-24T04:48:53;8.15;;;7.30;;
57395;SDS011;43222;52.912;6.940;2023-04-24T04:51:19;8.90;;;6.88;;
57395;SDS011;43222;52.912;6.940;2023-04-24T04:53:45;8.57;;;7.00;;
57395;SDS011;43222;52.912;6.940;2023-04-24T04:56:11;7.85;;;7.05;;
57395;SDS011;43222;52.912;6.940;2023-04-24T04:58:38;8.90;;;6.78;;
57395;SDS011;43222;52.912;6.940;2023-04-24T05:01:04;7.50;;;6.70;;
57395;SDS011;43222;52.912;6.940;2023-04-24T05:03:30;7.50;;;6.38;;
57395;SDS011;43222;52.912;6.940;2023-04-24T05:05:57;8.70;;;7.03;;
57395;SDS011;43222;52.912;6.940;2023-04-24T05:08:23;7.55;;;6.43;;
57395;SDS011;43222;52.912;6.940;2023-04-24T05:10:49;8.52;;;7.32;;
57395;SDS011;43222;52.912;6.940;2023-04-24T05:13:15;7.72;;;6.93;;
57395;SDS011;43222;52.912;6.940;2023-04-24T05:15:41;7.80;;;6.57;;
57395;SDS011;43222;52.912;6.940;2023-04-24T05:18:07;8.40;;;6.95;;
57395;SDS011;43222;52.912;6.940;2023-04-24T05:20:33;8.18;;;6.78;;
57395;SDS011;43222;52.912;6.940;2023-04-24T05:23:02;7.65;;;6.78;;
57395;SDS011;43222;52.912;6.940;2023-04-24T05:25:28;8.40;;;6.90;;
57395;SDS011;43222;52.912;6.940;2023-04-24T05:27:55;8.25;;;7.22;;
57395;SDS011;43222;52.912;6.940;2023-04-24T05:30:21;8.88;;;7.80;;
57395;SDS011;43222;52.912;6.940;2023-04-24T05:32:47;8.27;;;7.38;;
57395;SDS011;43222;52.912;6.940;2023-04-24T05:35:13;8.13;;;7.20;;
57395;SDS011;43222;52.912;6.940;2023-04-24T05:37:39;7.90;;;6.63;;
57395;SDS011;43222;52.912;6.940;2023-04-24T05:40:05;8.20;;;6.97;;
57395;SDS011;43222;52.912;6.940;2023-04-24T05:42:32;7.78;;;6.88;;
57395;SDS011;43222;52.912;6.940;2023-04-24T05:44:58;7.70;;;6.25;;
57395;SDS011;43222;52.912;6.940;2023-04-24T05:47:24;7.78;;;6.90;;
57395;SDS011;43222;52.912;6.940;2023-04-24T05:49:51;7.55;;;6.30;;
57395;SDS011;43222;52.912;6.940;2023-04-24T05:52:18;6.68;;;5.68;;
57395;SDS011;43222;52.912;6.940;2023-04-24T05:54:44;6.88;;;5.38;;
57395;SDS011;43222;52.912;6.940;2023-04-24T05:57:10;6.72;;;5.15;;
57395;SDS011;43222;52.912;6.940;2023-04-24T05:59:37;6.55;;;5.00;;
57395;SDS011;43222;52.912;6.940;2023-04-24T06:02:03;6.47;;;5.25;;
57395;SDS011;43222;52.912;6.940;2023-04-24T06:04:31;6.85;;;4.80;;
57395;SDS011;43222;52.912;6.940;2023-04-24T06:06:57;6.63;;;4.38;;
57395;SDS011;43222;52.912;6.940;2023-04-24T06:09:23;5.85;;;3.80;;
57395;SDS011;43222;52.912;6.940;2023-04-24T06:11:50;6.05;;;3.85;;
57395;SDS011;43222;52.912;6.940;2023-04-24T06:14:18;5.70;;;4.70;;
57395;SDS011;43222;52.912;6.940;2023-04-24T06:16:44;6.25;;;3.90;;
57395;SDS011;43222;52.912;6.940;2023-04-24T06:19:10;5.43;;;3.95;;
57395;SDS011;43222;52.912;6.940;2023-04-24T06:21:36;5.82;;;3.72;;
57395;SDS011;43222;52.912;6.940;2023-04-24T06:24:02;5.10;;;3.67;;
57395;SDS011;43222;52.912;6.940;2023-04-24T06:26:32;6.70;;;3.97;;
57395;SDS011;43222;52.912;6.940;2023-04-24T06:28:58;5.38;;;3.53;;
57395;SDS011;43222;52.912;6.940;2023-04-24T06:31:25;5.00;;;3.17;;
57395;SDS011;43222;52.912;6.940;2023-04-24T06:33:51;5.55;;;3.67;;
57395;SDS011;43222;52.912;6.940;2023-04-24T06:36:17;5.18;;;3.40;;
57395;SDS011;43222;52.912;6.940;2023-04-24T06:38:43;5.85;;;3.25;;
57395;SDS011;43222;52.912;6.940;2023-04-24T06:41:09;6.22;;;3.65;;
57395;SDS011;43222;52.912;6.940;2023-04-24T06:43:36;4.32;;;2.80;;
57395;SDS011;43222;52.912;6.940;2023-04-24T06:46:02;4.55;;;2.88;;
57395;SDS011;43222;52.912;6.940;2023-04-24T06:48:28;4.93;;;3.15;;
57395;SDS011;43222;52.912;6.940;2023-04-24T06:50:54;4.80;;;2.80;;
57395;SDS011;43222;52.912;6.940;2023-04-24T06:53:20;6.07;;;2.70;;
57395;SDS011;43222;52.912;6.940;2023-04-24T06:55:46;4.70;;;2.60;;
57395;SDS011;43222;52.912;6.940;2023-04-24T06:58:13;4.57;;;2.47;;
57395;SDS011;43222;52.912;6.940;2023-04-24T07:00:40;4.80;;;2.50;;
57395;SDS011;43222;52.912;6.940;2023-04-24T07:03:06;5.20;;;2.70;;
57395;SDS011;43222;52.912;6.940;2023-04-24T07:05:32;5.75;;;3.10;;
57395;SDS011;43222;52.912;6.940;2023-04-24T07:08:03;5.00;;;2.70;;
57395;SDS011;43222;52.912;6.940;2023-04-24T07:10:29;4.38;;;2.35;;
57395;SDS011;43222;52.912;6.940;2023-04-24T07:12:55;4.50;;;2.45;;
57395;SDS011;43222;52.912;6.940;2023-04-24T07:15:22;4.68;;;2.58;;
57395;SDS011;43222;52.912;6.940;2023-04-24T07:17:48;4.63;;;2.70;;
57395;SDS011;43222;52.912;6.940;2023-04-24T07:20:14;8.45;;;2.45;;
57395;SDS011;43222;52.912;6.940;2023-04-24T07:22:40;4.70;;;2.72;;
57395;SDS011;43222;52.912;6.940;2023-04-24T07:25:07;5.20;;;2.83;;
57395;SDS011;43222;52.912;6.940;2023-04-24T07:27:33;5.65;;;3.50;;
57395;SDS011;43222;52.912;6.940;2023-04-24T07:30:00;6.75;;;4.25;;
57395;SDS011;43222;52.912;6.940;2023-04-24T07:32:26;6.30;;;3.20;;
57395;SDS011;43222;52.912;6.940;2023-04-24T07:34:52;4.82;;;2.80;;
57395;SDS011;43222;52.912;6.940;2023-04-24T07:37:18;4.90;;;2.58;;
57395;SDS011;43222;52.912;6.940;2023-04-24T07:39:45;4.70;;;2.40;;
57395;SDS011;43222;52.912;6.940;2023-04-24T07:42:11;4.93;;;2.60;;
57395;SDS011;43222;52.912;6.940;2023-04-24T07:44:37;4.05;;;2.40;;
57395;SDS011;43222;52.912;6.940;2023-04-24T07:47:03;5.07;;;2.72;;
57395;SDS011;43222;52.912;6.940;2023-04-24T07:49:29;6.43;;;3.88;;
57395;SDS011;43222;52.912;6.940;2023-04-24T07:51:56;6.75;;;4.78;;
57395;SDS011;43222;52.912;6.940;2023-04-24T07:54:22;7.13;;;5.45;;
57395;SDS011;43222;52.912;6.940;2023-04-24T07:56:48;7.95;;;5.20;;
57395;SDS011;43222;52.912;6.940;2023-04-24T07:59:14;6.90;;;4.88;;
57395;SDS011;43222;52.912;6.940;2023-04-24T08:01:40;8.02;;;4.72;;
57395;SDS011;43222;52.912;6.940;2023-04-24T08:04:06;6.68;;;5.00;;
57395;SDS011;43222;52.912;6.940;2023-04-24T08:06:32;7.68;;;4.55;;
57395;SDS011;43222;52.912;6.940;2023-04-24T08:08:59;7.45;;;4.47;;
57395;SDS011;43222;52.912;6.940;2023-04-24T08:11:25;7.50;;;3.13;;
57395;SDS011;43222;52.912;6.940;2023-04-24T08:13:51;7.10;;;3.30;;
57395;SDS011;43222;52.912;6.940;2023-04-24T08:16:18;9.88;;;3.05;;
57395;SDS011;43222;52.912;6.940;2023-04-24T08:18:44;5.93;;;2.20;;
57395;SDS011;43222;52.912;6.940;2023-04-24T08:21:10;5.32;;;1.90;;
57395;SDS011;43222;52.912;6.940;2023-04-24T08:23:38;5.30;;;2.10;;
57395;SDS011;43222;52.912;6.940;2023-04-24T08:26:04;6.28;;;1.80;;
57395;SDS011;43222;52.912;6.940;2023-04-24T08:28:32;5.55;;;1.80;;
57395;SDS011;43222;52.912;6.940;2023-04-24T08:30:58;4.88;;;2.00;;
57395;SDS011;43222;52.912;6.940;2023-04-24T08:33:24;6.85;;;2.08;;
57395;SDS011;43222;52.912;6.940;2023-04-24T08:35:50;5.32;;;2.00;;
57395;SDS011;43222;52.912;6.940;2023-04-24T08:38:16;6.43;;;2.30;;
57395;SDS011;43222;52.912;6.940;2023-04-24T08:40:42;6.00;;;2.22;;
57395;SDS011;43222;52.912;6.940;2023-04-24T08:43:10;6.88;;;2.60;;
57395;SDS011;43222;52.912;6.940;2023-04-24T08:45:38;6.47;;;2.05;;
57395;SDS011;43222;52.912;6.940;2023-04-24T08:48:04;9.43;;;2.53;;
57395;SDS011;43222;52.912;6.940;2023-04-24T08:50:30;8.10;;;2.40;;
57395;SDS011;43222;52.912;6.940;2023-04-24T08:52:57;9.18;;;2.53;;
57395;SDS011;43222;52.912;6.940;2023-04-24T08:55:23;6.55;;;2.55;;
57395;SDS011;43222;52.912;6.940;2023-04-24T08:57:51;7.20;;;3.10;;
57395;SDS011;43222;52.912;6.940;2023-04-24T09:00:18;10.52;;;4.38;;
57395;SDS011;43222;52.912;6.940;2023-04-24T09:02:44;13.20;;;4.90;;
57395;SDS011;43222;52.912;6.940;2023-04-24T09:05:11;16.33;;;8.70;;
57395;SDS011;43222;52.912;6.940;2023-04-24T09:07:39;15.20;;;9.75;;
57395;SDS011;43222;52.912;6.940;2023-04-24T09:10:05;18.27;;;9.77;;
57395;SDS011;43222;52.912;6.940;2023-04-24T09:12:32;20.48;;;11.07;;
57395;SDS011;43222;52.912;6.940;2023-04-24T09:15:00;18.02;;;10.95;;
57395;SDS011;43222;52.912;6.940;2023-04-24T09:17:26;18.10;;;11.80;;
57395;SDS011;43222;52.912;6.940;2023-04-24T09:19:53;18.95;;;12.10;;
57395;SDS011;43222;52.912;6.940;2023-04-24T09:22:19;22.25;;;12.35;;
57395;SDS011;43222;52.912;6.940;2023-04-24T09:24:45;23.45;;;14.70;;
57395;SDS011;43222;52.912;6.940;2023-04-24T09:27:12;23.92;;;16.83;;
57395;SDS011;43222;52.912;6.940;2023-04-24T09:29:39;27.83;;;14.65;;
57395;SDS011;43222;52.912;6.940;2023-04-24T09:32:19;27.05;;;17.10;;
57395;SDS011;43222;52.912;6.940;2023-04-24T09:34:46;27.77;;;17.58;;
57395;SDS011;43222;52.912;6.940;2023-04-24T09:37:26;27.77;;;16.80;;
57395;SDS011;43222;52.912;6.940;2023-04-24T09:40:08;28.05;;;16.73;;
57395;SDS011;43222;52.912;6.940;2023-04-24T09:42:36;33.58;;;17.92;;
57395;SDS011;43222;52.912;6.940;2023-04-24T09:45:02;29.50;;;17.60;;
57395;SDS011;43222;52.912;6.940;2023-04-24T09:47:35;30.17;;;19.25;;
57395;SDS011;43222;52.912;6.940;2023-04-24T09:50:08;31.67;;;20.85;;
57395;SDS011;43222;52.912;6.940;2023-04-24T09:52:34;22.48;;;14.15;;
57395;SDS011;43222;52.912;6.940;2023-04-24T09:55:00;30.85;;;17.98;;
57395;SDS011;43222;52.912;6.940;2023-04-24T09:57:27;27.27;;;17.10;;
57395;SDS011;43222;52.912;6.940;2023-04-24T09:59:53;23.50;;;16.13;;
57395;SDS011;43222;52.912;6.940;2023-04-24T10:02:19;23.23;;;14.98;;
57395;SDS011;43222;52.912;6.940;2023-04-24T10:04:53;25.65;;;15.90;;
57395;SDS011;43222;52.912;6.940;2023-04-24T10:07:20;20.60;;;14.02;;
57395;SDS011;43222;52.912;6.940;2023-04-24T10:09:46;18.88;;;13.38;;
57395;SDS011;43222;52.912;6.940;2023-04-24T10:12:13;21.02;;;14.10;;
57395;SDS011;43222;52.912;6.940;2023-04-24T10:14:40;19.75;;;11.85;;
57395;SDS011;43222;52.912;6.940;2023-04-24T10:17:06;17.30;;;12.45;;
57395;SDS011;43222;52.912;6.940;2023-04-24T10:19:33;17.15;;;11.57;;
57395;SDS011;43222;52.912;6.940;2023-04-24T10:22:00;18.08;;;11.88;;
57395;SDS011;43222;52.912;6.940;2023-04-24T10:24:26;18.70;;;12.13;;
57395;SDS011;43222;52.912;6.940;2023-04-24T10:26:57;16.57;;;11.60;;
57395;SDS011;43222;52.912;6.940;2023-04-24T10:29:23;18.05;;;10.73;;
57395;SDS011;43222;52.912;6.940;2023-04-24T10:31:50;16.15;;;11.45;;
57395;SDS011;43222;52.912;6.940;2023-04-24T10:34:16;15.35;;;10.75;;
57395;SDS011;43222;52.912;6.940;2023-04-24T10:36:49;15.18;;;9.73;;
57395;SDS011;43222;52.912;6.940;2023-04-24T10:39:16;15.82;;;10.30;;
57395;SDS011;43222;52.912;6.940;2023-04-24T10:41:42;18.30;;;10.80;;
57395;SDS011;43222;52.912;6.940;2023-04-24T10:44:13;14.70;;;10.20;;
57395;SDS011;43222;52.912;6.940;2023-04-24T10:46:46;16.13;;;9.73;;
57395;SDS011;43222;52.912;6.940;2023-04-24T10:49:18;16.88;;;10.20;;
57395;SDS011;43222;52.912;6.940;2023-04-24T10:51:53;17.42;;;9.60;;
57395;SDS011;43222;52.912;6.940;2023-04-24T10:56:51;18.15;;;9.60;;
57395;SDS011;43222;52.912;6.940;2023-04-24T10:59:24;15.30;;;8.93;;
57395;SDS011;43222;52.912;6.940;2023-04-24T11:01:54;17.83;;;9.60;;
57395;SDS011;43222;52.912;6.940;2023-04-24T11:04:30;17.30;;;8.88;;
57395;SDS011;43222;52.912;6.940;2023-04-24T11:06:57;13.07;;;8.07;;
57395;SDS011;43222;52.912;6.940;2023-04-24T11:09:24;17.88;;;7.25;;
57395;SDS011;43222;52.912;6.940;2023-04-24T11:11:51;10.52;;;5.10;;
57395;SDS011;43222;52.912;6.940;2023-04-24T11:14:28;18.23;;;5.70;;
57395;SDS011;43222;52.912;6.940;2023-04-24T11:16:54;12.13;;;4.75;;
57395;SDS011;43222;52.912;6.940;2023-04-24T11:19:26;14.77;;;4.60;;
57395;SDS011;43222;52.912;6.940;2023-04-24T11:21:55;14.75;;;5.40;;
57395;SDS011;43222;52.912;6.940;2023-04-24T11:34:49;13.95;;;4.00;;
57395;SDS011;43222;52.912;6.940;2023-04-24T11:37:16;12.45;;;3.60;;
57395;SDS011;43222;52.912;6.940;2023-04-24T11:39:42;12.43;;;3.50;;
57395;SDS011;43222;52.912;6.940;2023-04-24T11:42:09;9.30;;;3.70;;
57395;SDS011;43222;52.912;6.940;2023-04-24T11:44:35;11.93;;;3.85;;
57395;SDS011;43222;52.912;6.940;2023-04-24T11:47:05;15.02;;;3.60;;
57395;SDS011;43222;52.912;6.940;2023-04-24T11:49:37;13.43;;;3.45;;
57395;SDS011;43222;52.912;6.940;2023-04-24T11:52:03;10.65;;;3.45;;
57395;SDS011;43222;52.912;6.940;2023-04-24T11:54:30;13.18;;;3.20;;
57395;SDS011;43222;52.912;6.940;2023-04-24T11:56:56;10.13;;;2.95;;
57395;SDS011;43222;52.912;6.940;2023-04-24T11:59:22;14.73;;;3.40;;
57395;SDS011;43222;52.912;6.940;2023-04-24T12:01:48;10.50;;;2.58;;
57395;SDS011;43222;52.912;6.940;2023-04-24T12:04:16;10.82;;;3.00;;
57395;SDS011;43222;52.912;6.940;2023-04-24T12:09:27;10.93;;;2.88;;
57395;SDS011;43222;52.912;6.940;2023-04-24T12:11:54;12.90;;;3.10;;
57395;SDS011;43222;52.912;6.940;2023-04-24T12:14:23;10.98;;;2.90;;
57395;SDS011;43222;52.912;6.940;2023-04-24T12:16:50;12.90;;;2.80;;
57395;SDS011;43222;52.912;6.940;2023-04-24T12:19:23;11.70;;;3.17;;
57395;SDS011;43222;52.912;6.940;2023-04-24T12:22:01;10.70;;;2.70;;
57395;SDS011;43222;52.912;6.940;2023-04-24T12:24:27;11.85;;;2.95;;
57395;SDS011;43222;52.912;6.940;2023-04-24T12:26:53;9.63;;;2.45;;
57395;SDS011;43222;52.912;6.940;2023-04-24T12:29:22;11.88;;;2.72;;
57395;SDS011;43222;52.912;6.940;2023-04-24T12:31:49;10.80;;;2.42;;
57395;SDS011;43222;52.912;6.940;2023-04-24T12:34:19;6.68;;;2.00;;
57395;SDS011;43222;52.912;6.940;2023-04-24T12:36:46;9.60;;;2.05;;
57395;SDS011;43222;52.912;6.940;2023-04-24T12:39:15;10.05;;;2.20;;
57395;SDS011;43222;52.912;6.940;2023-04-24T12:41:55;10.75;;;2.45;;
57395;SDS011;43222;52.912;6.940;2023-04-24T12:44:39;11.95;;;2.25;;
57395;SDS011;43222;52.912;6.940;2023-04-24T12:47:05;9.48;;;2.40;;
57395;SDS011;43222;52.912;6.940;2023-04-24T12:49:32;11.27;;;2.15;;
57395;SDS011;43222;52.912;6.940;2023-04-24T12:51:58;10.32;;;2.65;;
57395;SDS011;43222;52.912;6.940;2023-04-24T12:54:24;10.27;;;2.38;;
57395;SDS011;43222;52.912;6.940;2023-04-24T12:56:50;11.43;;;2.22;;
57395;SDS011;43222;52.912;6.940;2023-04-24T12:59:16;9.68;;;2.47;;
57395;SDS011;43222;52.912;6.940;2023-04-24T13:01:42;11.48;;;2.92;;
57395;SDS011;43222;52.912;6.940;2023-04-24T13:04:08;11.50;;;2.30;;
57395;SDS011;43222;52.912;6.940;2023-04-24T13:06:34;10.90;;;2.40;;
57395;SDS011;43222;52.912;6.940;2023-04-24T13:09:00;9.43;;;2.00;;
57395;SDS011;43222;52.912;6.940;2023-04-24T13:11:26;6.40;;;1.70;;
57395;SDS011;43222;52.912;6.940;2023-04-24T13:13:53;8.30;;;1.98;;
57395;SDS011;43222;52.912;6.940;2023-04-24T13:16:19;8.02;;;1.80;;
57395;SDS011;43222;52.912;6.940;2023-04-24T13:18:45;7.93;;;1.65;;
57395;SDS011;43222;52.912;6.940;2023-04-24T13:21:11;5.50;;;1.48;;
57395;SDS011;43222;52.912;6.940;2023-04-24T13:23:37;9.43;;;1.70;;
57395;SDS011;43222;52.912;6.940;2023-04-24T13:26:03;6.40;;;1.40;;
57395;SDS011;43222;52.912;6.940;2023-04-24T13:28:29;6.68;;;1.40;;
57395;SDS011;43222;52.912;6.940;2023-04-24T13:30:55;8.18;;;1.80;;
57395;SDS011;43222;52.912;6.940;2023-04-24T13:33:21;5.93;;;1.50;;
57395;SDS011;43222;52.912;6.940;2023-04-24T13:35:47;9.55;;;1.63;;
57395;SDS011;43222;52.912;6.940;2023-04-24T13:38:13;7.93;;;1.65;;
57395;SDS011;43222;52.912;6.940;2023-04-24T13:40:39;9.88;;;1.90;;
57395;SDS011;43222;52.912;6.940;2023-04-24T13:43:05;6.47;;;1.45;;
57395;SDS011;43222;52.912;6.940;2023-04-24T13:45:31;7.15;;;1.60;;
57395;SDS011;43222;52.912;6.940;2023-04-24T13:47:58;5.32;;;1.38;;
57395;SDS011;43222;52.912;6.940;2023-04-24T13:50:24;5.70;;;1.40;;
57395;SDS011;43222;52.912;6.940;2023-04-24T13:52:50;8.07;;;1.90;;
57395;SDS011;43222;52.912;6.940;2023-04-24T13:55:16;8.30;;;1.65;;
57395;SDS011;43222;52.912;6.940;2023-04-24T13:57:42;7.10;;;2.40;;
57395;SDS011;43222;52.912;6.940;2023-04-24T14:00:08;7.93;;;1.50;;
57395;SDS011;43222;52.912;6.940;2023-04-24T14:02:36;6.63;;;1.23;;
57395;SDS011;43222;52.912;6.940;2023-04-24T14:05:02;7.25;;;1.20;;
57395;SDS011;43222;52.912;6.940;2023-04-24T14:07:28;8.93;;;1.40;;
57395;SDS011;43222;52.912;6.940;2023-04-24T14:09:55;5.65;;;1.30;;
57395;SDS011;43222;52.912;6.940;2023-04-24T14:12:21;6.97;;;1.30;;
57395;SDS011;43222;52.912;6.940;2023-04-24T14:14:47;6.63;;;1.30;;
57395;SDS011;43222;52.912;6.940;2023-04-24T14:17:14;7.32;;;1.30;;
57395;SDS011;43222;52.912;6.940;2023-04-24T14:19:40;7.20;;;1.30;;
57395;SDS011;43222;52.912;6.940;2023-04-24T14:22:06;7.93;;;1.40;;
57395;SDS011;43222;52.912;6.940;2023-04-24T14:24:32;4.85;;;0.98;;
57395;SDS011;43222;52.912;6.940;2023-04-24T14:26:58;6.15;;;1.30;;
57395;SDS011;43222;52.912;6.940;2023-04-24T14:29:25;7.85;;;1.40;;
57395;SDS011;43222;52.912;6.940;2023-04-24T14:31:51;7.43;;;1.80;;
57395;SDS011;43222;52.912;6.940;2023-04-24T14:34:17;7.35;;;1.98;;
57395;SDS011;43222;52.912;6.940;2023-04-24T14:36:44;6.88;;;1.80;;
57395;SDS011;43222;52.912;6.940;2023-04-24T14:39:10;7.22;;;1.50;;
57395;SDS011;43222;52.912;6.940;2023-04-24T14:41:37;7.95;;;1.50;;
57395;SDS011;43222;52.912;6.940;2023-04-24T14:44:04;8.80;;;1.70;;
57395;SDS011;43222;52.912;6.940;2023-04-24T14:46:31;10.25;;;1.60;;
57395;SDS011;43222;52.912;6.940;2023-04-24T14:48:57;9.32;;;1.70;;
57395;SDS011;43222;52.912;6.940;2023-04-24T14:51:23;15.88;;;1.90;;
57395;SDS011;43222;52.912;6.940;2023-04-24T14:53:50;10.90;;;2.03;;
57395;SDS011;43222;52.912;6.940;2023-04-24T14:56:16;9.73;;;2.00;;